Loppoey — LCBX — position and weather

sailwx.info

Track history (hours):
 
Tides and Currents Weather Stations Pressure Air Temp Water Temp Dewpoint Dewpoint Depression Visibility Wind Speed Wind Dir Waves Ship Positions

Loppoey

Last reported at 2018-Feb-16 16:21 UTC. Time now 2018-Feb-17 20:10 UTC.
Position N 70°33' E 023°09'.

Length 27 m; draft 1 m.

Type: High speed craft. MMSI: 258127000.

Date/timePositionNaut miles runAvg speedWind from/ knotsBaromVisibWave heightAir tempDewpointWater temp
2018-Feb-16 16:21N 70°33' E 023°09'921.4
2018-Feb-16 15:57N 70°39' E 023°29'4 7.8
2018-Feb-16 15:25N 70°40' E 023°41'0 0.0
2018-Feb-16 14:55N 70°40' E 023°41'0 0.0
2018-Feb-16 14:01N 70°40' E 023°41'0 0.0
2018-Feb-16 13:49N 70°40' E 023°41'0 0.0
2018-Feb-16 13:25N 70°40' E 023°41'0 0.0
2018-Feb-16 12:49N 70°40' E 023°41'0 0.0
2018-Feb-16 09:55N 70°40' E 023°41'0 0.0
2018-Feb-16 08:19N 70°40' E 023°41'0 0.0
2018-Feb-16 08:00N 70°40' E 023°41'1220.1
2018-Feb-16 07:25N 70°34' E 023°12'8 0.2
2018-Feb-14 15:54N 70°39' E 023°29'4 8.3
2018-Feb-14 15:25N 70°40' E 023°41'0 0.0
2018-Feb-14 14:44N 70°40' E 023°41'312.2
2018-Feb-14 14:30N 70°39' E 023°32'711.3
2018-Feb-14 13:54N 70°38' E 023°12'9 9.5
2018-Feb-14 13:00N 70°44' E 023°32'5 7.4
2018-Feb-14 12:19N 70°40' E 023°41'0 0.0
2018-Feb-14 11:49N 70°40' E 023°41'0 0.0
2018-Feb-14 10:29N 70°40' E 023°41'7 0.2
2018-Feb-12 17:07N 70°37' E 023°21'325.9
2018-Feb-12 17:00N 70°38' E 023°29'4 8.1
2018-Feb-12 16:30N 70°40' E 023°41'0 0.0
2018-Feb-12 15:12N 70°40' E 023°41'0 0.0
2018-Feb-12 13:54N 70°40' E 023°41'0 0.0
2018-Feb-12 13:24N 70°40' E 023°41'0 0.0
2018-Feb-12 10:54N 70°40' E 023°41'0 0.0
2018-Feb-12 10:30N 70°40' E 023°41'0 0.0
2018-Feb-12 09:42N 70°40' E 023°41'0 0.0
2018-Feb-12 09:18N 70°40' E 023°41'0 0.0
2018-Feb-12 07:54N 70°40' E 023°41'12 1.0
2018-Feb-11 19:25N 70°33' E 023°10'920.4
2018-Feb-11 18:59N 70°39' E 023°29'4 7.4
2018-Feb-11 18:26N 70°40' E 023°41'3 7.4
2018-Feb-11 18:00N 70°39' E 023°32'  
Track history (hours):
 
Tides and Currents Weather Stations Pressure Air Temp Water Temp Dewpoint Dewpoint Depression Visibility Wind Speed Wind Dir Waves Ship Positions

Loppoey

Last reported at 2018-Feb-16 16:21 UTC. Time now 2018-Feb-17 20:10 UTC.
Position N 70°33' E 023°09'.

Length 27 m; draft 1 m.

Type: High speed craft. MMSI: 258127000.

Date/timePositionNaut miles runAvg speedWind from/ knotsBaromVisibWave heightAir tempDewpointWater temp
2018-Feb-16 16:21N 70°33' E 023°09'921.4
2018-Feb-16 15:57N 70°39' E 023°29'4 7.8
2018-Feb-16 15:25N 70°40' E 023°41'0 0.0
2018-Feb-16 14:55N 70°40' E 023°41'0 0.0
2018-Feb-16 14:01N 70°40' E 023°41'0 0.0
2018-Feb-16 13:49N 70°40' E 023°41'0 0.0
2018-Feb-16 13:25N 70°40' E 023°41'0 0.0
2018-Feb-16 12:49N 70°40' E 023°41'0 0.0
2018-Feb-16 09:55N 70°40' E 023°41'0 0.0
2018-Feb-16 08:19N 70°40' E 023°41'0 0.0
2018-Feb-16 08:00N 70°40' E 023°41'1220.1
2018-Feb-16 07:25N 70°34' E 023°12'8 0.2
2018-Feb-14 15:54N 70°39' E 023°29'4 8.3
2018-Feb-14 15:25N 70°40' E 023°41'0 0.0
2018-Feb-14 14:44N 70°40' E 023°41'312.2
2018-Feb-14 14:30N 70°39' E 023°32'711.3
2018-Feb-14 13:54N 70°38' E 023°12'9 9.5
2018-Feb-14 13:00N 70°44' E 023°32'5 7.4
2018-Feb-14 12:19N 70°40' E 023°41'0 0.0
2018-Feb-14 11:49N 70°40' E 023°41'0 0.0
2018-Feb-14 10:29N 70°40' E 023°41'7 0.2
2018-Feb-12 17:07N 70°37' E 023°21'325.9
2018-Feb-12 17:00N 70°38' E 023°29'4 8.1
2018-Feb-12 16:30N 70°40' E 023°41'0 0.0
2018-Feb-12 15:12N 70°40' E 023°41'0 0.0
2018-Feb-12 13:54N 70°40' E 023°41'0 0.0
2018-Feb-12 13:24N 70°40' E 023°41'0 0.0
2018-Feb-12 10:54N 70°40' E 023°41'0 0.0
2018-Feb-12 10:30N 70°40' E 023°41'0 0.0
2018-Feb-12 09:42N 70°40' E 023°41'0 0.0
2018-Feb-12 09:18N 70°40' E 023°41'0 0.0
2018-Feb-12 07:54N 70°40' E 023°41'12 1.0
2018-Feb-11 19:25N 70°33' E 023°10'920.4
2018-Feb-11 18:59N 70°39' E 023°29'4 7.4
2018-Feb-11 18:26N 70°40' E 023°41'3 7.4
2018-Feb-11 18:00N 70°39' E 023°32'  

Dump ship's entire track history